Smithville, Canada
Current Conditions -  °F | °C
As of 5:00 PM on Sunday 25 Jan 2015 (Local Time) from CYSN Reporting Station
Broken Clouds Broken Clouds  
Wind Chill:   Ceiling: 22000
Heat Index: 18°   Visibility: 15mi
Dew Point:   Wind: 7mph
Humidity: 58%   Direction: 50°NE
Pressure: 29.99"   Gusts: NA
Location:  43.1°N, 79.53°W
Report Text: CYSN 252200Z 05006KT 15SM SCT180 BKN220 M08/M15 A2999 RMK AC3CI4 SLP162
Loading
Personal Weather Stations






























Interactive Weather Map New forecast layout! Learn more

10-Day Weather Forecast

Advertisements
Track Severe Weather on mobile